Time;durP1;ratioP1;P1;durP2;ratioP2;P2;SDS_P1;SDS_P2;PMS_P1;PMS_P2;Temp;Humidity;BMP_temperature;BMP_pressure;BME280_temperature;BME280_humidity;BME280_pressure;Samples;Min_cycle;Max_cycle;Signal;HPM_P1;HPM_P2
2021/01/25 00:00:07;;;;;;;17.80;10.50;;;;;;;3.02;74.21;99414.31;681658;29;22609;-59
2021/01/25 00:00:33;;;;;;;18.90;11.15;;;;;;;3.01;74.19;99407.31;679066;28;88417;-60
2021/01/25 00:00:55;;;;;;;17.02;10.63;;;;;;;3.01;74.21;99409.97;682774;29;23552;-65
2021/01/25 00:01:17;;;;;;;18.40;11.05;;;;;;;3.03;74.21;99416.00;677003;29;64785;-65
2021/01/25 00:01:39;;;;;;;17.75;10.65;;;;;;;3.03;74.28;99403.47;678744;29;22403;-65
2021/01/25 00:02:00;;;;;;;17.42;11.00;;;;;;;3.01;74.32;99413.50;677532;29;46445;-65
2021/01/25 00:02:22;;;;;;;18.90;11.07;;;;;;;3.01;74.35;99416.16;678444;29;21240;-66
2021/01/25 00:02:43;;;;;;;18.23;10.60;;;;;;;3.02;74.18;99416.97;677290;29;44389;-65
2021/01/25 00:03:04;;;;;;;16.95;10.48;;;;;;;3.00;74.34;99411.81;679326;29;22741;-65
2021/01/25 00:03:26;;;;;;;19.52;11.32;;;;;;;3.00;74.30;99416.31;680723;29;46261;-65
2021/01/25 00:03:47;;;;;;;20.05;11.45;;;;;;;3.01;74.23;99415.31;681443;29;23498;-65
2021/01/25 00:04:10;;;;;;;17.42;10.98;;;;;;;2.99;74.45;99410.13;681051;29;46214;-66
2021/01/25 00:04:31;;;;;;;17.88;10.85;;;;;;;3.02;74.37;99416.97;680598;29;44554;-62
2021/01/25 00:04:52;;;;;;;19.00;11.13;;;;;;;3.00;74.33;99417.16;681799;29;16098;-60
2021/01/25 00:05:14;;;;;;;20.55;11.98;;;;;;;2.99;74.38;99407.47;681547;29;22380;-63
2021/01/25 00:05:37;;;;;;;18.33;11.27;;;;;;;3.00;74.45;99411.81;680181;29;46313;-62
2021/01/25 00:05:58;;;;;;;19.38;11.20;;;;;;;2.99;74.39;99412.78;679984;29;69249;-60
2021/01/25 00:06:19;;;;;;;21.00;11.07;;;;;;;2.98;74.38;99413.81;681613;29;23568;-59
2021/01/25 00:06:41;;;;;;;20.00;11.40;;;;;;;2.98;74.31;99416.47;682345;29;1208;-60
2021/01/25 00:07:03;;;;;;;18.10;11.27;;;;;;;2.98;74.40;99412.97;680785;29;46421;-64
2021/01/25 00:07:24;;;;;;;18.65;11.15;;;;;;;2.97;74.27;99409.47;680981;29;22482;-60
2021/01/25 00:07:46;;;;;;;18.92;10.85;;;;;;;2.97;74.40;99409.47;680509;28;46381;-61
2021/01/25 00:08:07;;;;;;;20.13;11.27;;;;;;;2.98;74.46;99413.81;681743;29;12263;-61
2021/01/25 00:08:29;;;;;;;20.25;11.50;;;;;;;2.98;74.38;99411.16;681807;29;1216;-60
2021/01/25 00:08:51;;;;;;;19.95;11.40;;;;;;;2.97;74.22;99420.13;682112;29;1106;-60
2021/01/25 00:09:13;;;;;;;18.48;11.13;;;;;;;2.99;74.44;99417.31;681758;29;13695;-62
2021/01/25 00:09:34;;;;;;;19.15;11.40;;;;;;;2.98;74.42;99419.16;681466;29;22473;-63
2021/01/25 00:09:55;;;;;;;18.83;10.77;;;;;;;2.98;74.35;99415.63;681490;29;23575;-61
2021/01/25 00:10:17;;;;;;;16.92;10.27;;;;;;;2.98;74.37;99419.16;680609;29;41113;-62
2021/01/25 00:10:40;;;;;;;18.17;10.65;;;;;;;2.97;74.43;99420.13;681636;29;23482;-62
2021/01/25 00:11:01;;;;;;;20.90;11.70;;;;;;;2.96;74.51;99418.47;679826;29;66975;-61
2021/01/25 00:11:22;;;;;;;17.15;10.82;;;;;;;2.96;74.32;99418.47;681597;29;23111;-63
2021/01/25 00:11:44;;;;;;;20.48;12.00;;;;;;;2.97;74.51;99419.31;681505;29;23515;-63
2021/01/25 00:12:06;;;;;;;21.00;12.00;;;;;;;2.97;74.54;99414.78;682108;29;8471;-59
2021/01/25 00:12:28;;;;;;;21.60;11.63;;;;;;;2.96;74.47;99421.16;680439;29;31619;-62
2021/01/25 00:12:49;;;;;;;22.27;11.65;;;;;;;2.98;74.45;99410.28;680654;29;44399;-65
2021/01/25 00:13:11;;;;;;;18.30;10.75;;;;;;;2.97;74.43;99416.63;680663;29;46502;-62
2021/01/25 00:13:32;;;;;;;17.88;10.77;;;;;;;2.96;74.42;99415.81;681633;29;23543;-63
2021/01/25 00:13:54;;;;;;;20.27;11.73;;;;;;;2.96;74.46;99420.28;680803;29;46344;-63
2021/01/25 00:14:15;;;;;;;19.20;11.88;;;;;;;2.97;74.52;99419.31;681629;29;23264;-65
2021/01/25 00:14:36;;;;;;;17.65;11.02;;;;;;;2.95;74.30;99411.47;681596;29;22309;-60
2021/01/25 00:14:57;;;;;;;17.13;10.52;;;;;;;2.97;74.47;99421.97;680753;29;46610;-62
2021/01/25 00:15:19;;;;;;;16.05;10.30;;;;;;;2.96;74.43;99421.16;681291;29;23440;-60
2021/01/25 00:15:40;;;;;;;16.17;10.35;;;;;;;2.97;74.37;99421.97;680461;28;44230;-62
2021/01/25 00:16:02;;;;;;;17.17;10.15;;;;;;;2.97;74.37;99419.31;680853;29;22415;-61
2021/01/25 00:16:23;;;;;;;16.58;10.02;;;;;;;2.97;74.31;99419.31;681627;29;22452;-63
2021/01/25 00:16:45;;;;;;;16.80;10.15;;;;;;;2.96;74.41;99418.47;681619;29;22452;-60
2021/01/25 00:17:07;;;;;;;18.55;10.75;;;;;;;2.96;74.21;99423.81;679375;29;69419;-60
2021/01/25 00:17:28;;;;;;;16.27;9.90;;;;;;;2.96;74.33;99421.16;681708;29;12716;-62
2021/01/25 00:17:49;;;;;;;14.85;9.45;;;;;;;2.96;74.30;99418.47;680521;29;46367;-63
2021/01/25 00:18:11;;;;;;;15.85;9.95;;;;;;;2.96;74.26;99422.97;681320;29;23617;-62
2021/01/25 00:18:32;;;;;;;14.93;9.77;;;;;;;2.94;74.31;99422.28;680753;29;44393;-62
2021/01/25 00:18:53;;;;;;;14.30;9.40;;;;;;;2.96;74.29;99423.81;681898;29;23591;-65
2021/01/25 00:19:15;;;;;;;12.93;8.68;;;;;;;2.96;74.22;99428.28;681731;29;21823;-65
2021/01/25 00:19:36;;;;;;;15.57;9.30;;;;;;;2.95;74.12;99422.13;680822;29;22452;-65
2021/01/25 00:19:58;;;;;;;15.13;9.88;;;;;;;2.95;74.19;99422.13;680443;29;45374;-65
2021/01/25 00:20:19;;;;;;;15.52;9.90;;;;;;;2.95;74.47;99422.13;681093;29;23533;-65
2021/01/25 00:20:40;;;;;;;17.13;9.88;;;;;;;2.96;74.15;99429.16;680295;29;44272;-65
2021/01/25 00:21:01;;;;;;;16.30;9.43;;;;;;;2.95;74.02;99421.31;682019;29;1161;-65
2021/01/25 00:21:23;;;;;;;15.10;9.75;;;;;;;2.95;74.17;99416.78;682000;29;1407;-65
2021/01/25 00:21:44;;;;;;;17.90;10.50;;;;;;;2.95;74.21;99419.47;678177;29;28120;-65
2021/01/25 00:22:06;;;;;;;19.38;10.50;;;;;;;2.93;74.30;99421.47;679177;29;9155;-65
2021/01/25 00:22:28;;;;;;;16.88;9.93;;;;;;;2.94;74.21;99416.97;678362;29;13765;-66
2021/01/25 00:22:49;;;;;;;16.65;9.93;;;;;;;2.92;74.23;99410.97;679647;28;69871;-65
2021/01/25 00:23:11;;;;;;;18.30;10.48;;;;;;;2.91;74.13;99419.94;680842;29;22486;-65
2021/01/25 00:23:32;;;;;;;18.92;10.52;;;;;;;2.91;74.15;99418.09;681063;29;28818;-64
2021/01/25 00:23:53;;;;;;;17.17;10.60;;;;;;;2.92;74.21;99421.63;681823;28;22393;-65
2021/01/25 00:24:14;;;;;;;16.08;10.02;;;;;;;2.91;74.15;99420.78;681531;29;22429;-65
2021/01/25 00:24:36;;;;;;;15.02;9.70;;;;;;;2.91;74.19;99423.44;681681;29;21557;-65
2021/01/25 00:24:57;;;;;;;15.02;9.68;;;;;;;2.91;74.11;99423.44;680971;28;46275;-65
2021/01/25 00:25:19;;;;;;;16.10;10.20;;;;;;;2.90;74.29;99413.78;681212;29;22415;-65
2021/01/25 00:25:40;;;;;;;17.15;10.77;;;;;;;2.91;74.19;99419.94;680716;28;44175;-65
2021/01/25 00:26:01;;;;;;;17.48;10.70;;;;;;;2.91;74.36;99418.09;681375;29;24502;-66
2021/01/25 00:26:22;;;;;;;17.83;10.48;;;;;;;2.91;74.19;99425.28;678346;29;21337;-65
2021/01/25 00:26:44;;;;;;;18.42;10.85;;;;;;;2.91;74.28;99423.44;678842;29;22445;-65
2021/01/25 00:27:05;;;;;;;17.77;10.70;;;;;;;2.92;74.11;99426.97;677807;29;46500;-64
2021/01/25 00:27:27;;;;;;;18.48;10.88;;;;;;;2.92;74.20;99424.28;678901;29;20194;-65
2021/01/25 00:27:48;;;;;;;20.10;11.60;;;;;;;2.91;74.20;99418.09;678004;29;46474;-65
2021/01/25 00:28:10;;;;;;;19.67;11.15;;;;;;;2.90;74.28;99421.78;679532;29;15115;-65
2021/01/25 00:28:31;;;;;;;18.00;10.77;;;;;;;2.89;74.21;99420.94;680372;29;46271;-65
2021/01/25 00:28:52;;;;;;;18.65;11.05;;;;;;;2.90;74.21;99427.13;681398;29;22648;-65
2021/01/25 00:29:13;;;;;;;18.20;10.77;;;;;;;2.89;74.34;99425.44;681426;29;22059;-65
2021/01/25 00:29:35;;;;;;;18.45;11.10;;;;;;;2.89;74.19;99428.09;678491;29;22938;-65
2021/01/25 00:29:57;;;;;;;20.25;11.27;;;;;;;2.89;74.32;99420.94;679530;29;1003;-66
2021/01/25 00:30:19;;;;;;;21.08;11.43;;;;;;;2.89;74.20;99422.78;678067;29;43204;-65
2021/01/25 00:30:40;;;;;;;19.90;11.40;;;;;;;2.89;74.46;99426.25;677611;29;46333;-65
2021/01/25 00:31:01;;;;;;;16.73;10.50;;;;;;;2.89;74.26;99426.25;678811;29;18098;-65
2021/01/25 00:31:23;;;;;;;16.27;10.60;;;;;;;2.89;74.24;99423.59;677864;29;938;-63
2021/01/25 00:31:45;;;;;;;18.80;11.10;;;;;;;2.91;74.21;99420.78;678132;29;44515;-60
2021/01/25 00:32:07;;;;;;;18.70;10.93;;;;;;;2.91;74.26;99428.78;678120;29;43581;-62
2021/01/25 00:32:28;;;;;;;18.52;10.73;;;;;;;2.92;74.28;99421.63;677280;29;46378;-61
2021/01/25 00:32:50;;;;;;;17.48;10.63;;;;;;;2.89;74.25;99423.59;678757;29;14884;-61
2021/01/25 00:33:11;;;;;;;19.75;11.52;;;;;;;2.89;74.49;99418.25;678500;29;45086;-60
2021/01/25 00:33:32;;;;;;;18.38;10.90;;;;;;;2.90;74.41;99419.13;681612;29;22734;-59
2021/01/25 00:33:53;;;;;;;16.15;10.18;;;;;;;2.91;74.31;99419.94;681666;28;23480;-61
2021/01/25 00:34:15;;;;;;;17.80;10.60;;;;;;;2.90;74.41;99421.78;680850;29;46338;-59
2021/01/25 00:34:42;;;;;;;17.55;10.30;;;;;;;2.91;74.24;99423.44;681553;29;21269;-62
2021/01/25 00:35:04;;;;;;;16.60;10.10;;;;;;;2.91;74.30;99420.78;677477;29;137953;-62
2021/01/25 00:35:25;;;;;;;16.08;10.02;;;;;;;2.92;74.23;99418.97;680381;29;45269;-61
2021/01/25 00:35:47;;;;;;;17.52;10.25;;;;;;;2.92;74.25;99426.97;681414;29;21528;-59
2021/01/25 00:36:08;;;;;;;17.92;10.20;;;;;;;2.93;74.24;99423.28;680678;29;44545;-59
2021/01/25 00:36:30;;;;;;;18.13;10.35;;;;;;;2.92;74.22;99424.28;681083;29;37561;-63
2021/01/25 00:36:51;;;;;;;16.80;10.57;;;;;;;2.94;74.17;99427.63;681576;28;22289;-61
2021/01/25 00:37:13;;;;;;;15.23;9.65;;;;;;;2.93;74.31;99425.94;681592;29;22405;-61
2021/01/25 00:37:34;;;;;;;14.73;9.30;;;;;;;2.93;74.37;99429.47;680864;29;44323;-61
2021/01/25 00:37:55;;;;;;;15.20;9.75;;;;;;;2.92;74.33;99416.28;680690;29;23416;-60
2021/01/25 00:38:16;;;;;;;16.60;10.38;;;;;;;2.91;74.29;99420.78;681293;29;23431;-61
2021/01/25 00:38:38;;;;;;;15.23;10.18;;;;;;;2.92;74.20;99424.28;680583;28;46303;-62
2021/01/25 00:38:59;;;;;;;14.45;9.70;;;;;;;2.92;74.23;99427.78;681399;29;22460;-61
2021/01/25 00:39:21;;;;;;;15.75;10.27;;;;;;;2.93;74.32;99425.94;680828;29;46348;-61
2021/01/25 00:39:42;;;;;;;16.25;10.23;;;;;;;2.92;74.19;99421.63;681940;28;23465;-62
2021/01/25 00:40:04;;;;;;;16.65;10.43;;;;;;;2.92;74.34;99426.97;681632;29;22302;-61
2021/01/25 00:40:26;;;;;;;16.30;9.95;;;;;;;2.92;74.29;99421.63;679842;29;69205;-61
2021/01/25 00:40:47;;;;;;;17.30;10.60;;;;;;;2.92;74.35;99414.44;681684;28;22425;-61
2021/01/25 00:41:08;;;;;;;17.75;10.80;;;;;;;2.91;74.23;99418.09;681696;29;21522;-61
2021/01/25 00:41:30;;;;;;;19.23;11.50;;;;;;;2.92;74.27;99427.78;681883;29;15471;-59
2021/01/25 00:41:51;;;;;;;18.17;10.40;;;;;;;2.92;74.27;99422.44;682024;28;23669;-60
2021/01/25 00:42:13;;;;;;;15.77;9.98;;;;;;;2.92;74.38;99416.28;681328;29;10132;-60
2021/01/25 00:42:34;;;;;;;17.58;10.85;;;;;;;2.92;74.33;99418.97;677493;29;35332;-58
2021/01/25 00:42:56;;;;;;;16.92;10.38;;;;;;;2.91;74.31;99414.59;679499;29;1366;-61
2021/01/25 00:43:17;;;;;;;19.08;10.52;;;;;;;2.91;74.34;99419.94;678521;29;21101;-62
2021/01/25 00:43:40;;;;;;;17.98;10.77;;;;;;;2.92;74.43;99418.97;678701;29;24344;-60
2021/01/25 00:44:01;;;;;;;17.25;10.65;;;;;;;2.91;74.33;99419.94;676390;29;85020;-63
2021/01/25 00:44:23;;;;;;;16.73;10.07;;;;;;;2.92;74.30;99418.97;679131;29;14218;-63
2021/01/25 00:44:44;;;;;;;16.52;10.27;;;;;;;2.91;74.43;99419.94;681496;29;22428;-62
2021/01/25 00:45:06;;;;;;;19.35;10.93;;;;;;;2.91;74.27;99415.44;681223;29;22396;-63
2021/01/25 00:45:29;;;;;;;16.77;10.45;;;;;;;2.91;74.39;99423.44;681498;28;15659;-64
2021/01/25 00:45:50;;;;;;;17.48;10.32;;;;;;;2.92;74.23;99419.78;682201;28;904;-64
2021/01/25 00:46:12;;;;;;;16.48;9.85;;;;;;;2.92;74.23;99416.28;681020;29;39791;-63
2021/01/25 00:46:33;;;;;;;15.38;9.73;;;;;;;2.91;74.40;99418.09;681725;29;19564;-64
2021/01/25 00:46:55;;;;;;;16.08;10.13;;;;;;;2.93;74.26;99415.28;681174;29;39613;-63
2021/01/25 00:47:17;;;;;;;17.58;10.25;;;;;;;2.94;74.18;99420.44;682877;29;861;-61
2021/01/25 00:47:38;;;;;;;15.32;9.88;;;;;;;2.93;74.32;99423.28;680594;29;46850;-61
2021/01/25 00:48:00;;;;;;;15.05;9.65;;;;;;;2.93;74.17;99421.47;678520;29;21495;-61
2021/01/25 00:48:21;;;;;;;16.83;9.82;;;;;;;2.92;74.31;99417.13;679865;28;23531;-62
2021/01/25 00:48:43;;;;;;;15.95;9.38;;;;;;;2.92;74.22;99416.28;683307;28;46438;-61
2021/01/25 00:49:04;;;;;;;15.65;10.20;;;;;;;2.92;74.32;99421.63;683151;28;23555;-61
2021/01/25 00:49:25;;;;;;;16.67;10.40;;;;;;;2.92;74.31;99422.44;682959;28;43556;-61
2021/01/25 00:49:47;;;;;;;18.05;10.60;;;;;;;2.92;74.33;99432.28;684816;28;1003;-61
2021/01/25 00:50:09;;;;;;;17.23;10.38;;;;;;;2.91;74.30;99419.94;686665;28;22394;-59
2021/01/25 00:50:30;;;;;;;17.65;10.85;;;;;;;2.92;74.49;99416.28;685579;28;59309;-62
2021/01/25 00:50:52;;;;;;;17.65;11.05;;;;;;;2.89;74.45;99415.59;682660;28;46339;-61
2021/01/25 00:51:14;;;;;;;17.08;10.25;;;;;;;2.91;74.38;99415.44;683736;28;3194;-60
2021/01/25 00:51:44;;;;;;;16.92;10.40;;;;;;;2.89;74.41;99422.78;680024;29;58292;-61
2021/01/25 00:52:07;;;;;;;15.18;9.65;;;;;;;2.89;74.45;99423.59;681022;28;22417;-61
2021/01/25 00:52:28;;;;;;;17.02;10.25;;;;;;;2.90;74.42;99419.13;679558;29;65814;-62
2021/01/25 00:52:50;;;;;;;19.08;11.27;;;;;;;2.88;74.38;99421.09;682324;28;17706;-64
2021/01/25 00:53:11;;;;;;;17.98;11.05;;;;;;;2.87;74.46;99420.25;680050;29;46432;-63
2021/01/25 00:53:34;;;;;;;16.92;10.52;;;;;;;2.87;74.50;99425.59;678083;29;25593;-63
2021/01/25 00:53:55;;;;;;;19.02;10.70;;;;;;;2.88;74.54;99423.75;679314;29;21456;-63
2021/01/25 00:54:16;;;;;;;15.50;9.73;;;;;;;2.85;74.71;99427.59;679914;29;46306;-64
2021/01/25 00:54:37;;;;;;;14.80;9.18;;;;;;;2.86;74.56;99420.41;681163;29;19833;-63
2021/01/25 00:54:59;;;;;;;15.30;9.60;;;;;;;2.85;74.64;99424.06;681638;28;22397;-63
2021/01/25 00:55:21;;;;;;;14.27;9.27;;;;;;;2.84;74.62;99417.91;679507;28;38593;-63
2021/01/25 00:55:43;;;;;;;14.73;9.15;;;;;;;2.83;74.65;99421.56;685286;28;23519;-62
2021/01/25 00:56:05;;;;;;;15.45;9.80;;;;;;;2.84;74.72;99425.09;682865;28;31812;-64
2021/01/25 00:56:27;;;;;;;15.52;9.95;;;;;;;2.84;74.66;99425.09;680788;28;69421;-63
2021/01/25 00:56:49;;;;;;;15.00;9.77;;;;;;;2.84;74.84;99425.91;679982;29;21525;-62
2021/01/25 00:57:11;;;;;;;14.25;9.38;;;;;;;2.85;74.63;99427.59;679790;28;67299;-63
2021/01/25 00:57:32;;;;;;;14.90;9.50;;;;;;;2.85;74.76;99427.59;681365;29;21549;-63
2021/01/25 00:57:54;;;;;;;16.50;9.77;;;;;;;2.85;74.67;99426.75;682252;28;21547;-63
2021/01/25 00:58:15;;;;;;;15.82;9.50;;;;;;;2.85;74.64;99430.25;684453;28;21526;-63
2021/01/25 00:58:38;;;;;;;16.37;9.50;;;;;;;2.85;74.72;99430.25;682696;28;917;-65
2021/01/25 00:59:00;;;;;;;15.73;9.52;;;;;;;2.86;74.69;99428.41;683925;28;45167;-63
2021/01/25 00:59:21;;;;;;;14.25;9.32;;;;;;;2.83;74.64;99428.75;686117;28;45489;-63
2021/01/25 00:59:42;;;;;;;14.77;9.32;;;;;;;2.86;74.46;99431.91;686981;28;20622;-64
2021/01/25 01:00:06;;;;;;;15.70;9.57;;;;;;;2.85;74.73;99432.94;686884;28;23442;-64
2021/01/25 01:00:28;;;;;;;16.70;10.18;;;;;;;2.86;74.61;99431.09;684353;28;92295;-64
2021/01/25 01:00:49;;;;;;;16.17;10.30;;;;;;;2.85;74.58;99432.94;686104;28;45344;-63
2021/01/25 01:01:13;;;;;;;14.25;9.57;;;;;;;2.86;74.66;99429.25;684251;28;21537;-63
2021/01/25 01:01:34;;;;;;;15.10;9.30;;;;;;;2.86;74.71;99431.91;681478;28;89950;-61
2021/01/25 01:01:56;;;;;;;15.90;9.75;;;;;;;2.87;74.53;99435.44;683673;28;22398;-60
2021/01/25 01:02:18;;;;;;;15.65;9.30;;;;;;;2.87;74.54;99432.78;683200;28;39353;-60
2021/01/25 01:02:39;;;;;;;17.90;10.07;;;;;;;2.86;74.65;99429.25;683772;28;17605;-61
2021/01/25 01:03:02;;;;;;;15.80;9.93;;;;;;;2.86;74.51;99431.91;684418;28;15253;-62
2021/01/25 01:03:23;;;;;;;15.70;10.10;;;;;;;2.87;74.57;99432.78;682952;28;68029;-60
2021/01/25 01:03:45;;;;;;;17.13;9.70;;;;;;;2.86;74.61;99429.25;686837;28;22174;-62
2021/01/25 01:04:07;;;;;;;15.52;9.35;;;;;;;2.85;74.60;99432.94;686484;28;35205;-62
2021/01/25 01:04:28;;;;;;;15.43;9.38;;;;;;;2.84;74.46;99430.41;686033;28;45406;-58
2021/01/25 01:04:49;;;;;;;14.18;9.20;;;;;;;2.85;74.65;99432.94;687037;28;23490;-60
2021/01/25 01:05:11;;;;;;;14.65;9.75;;;;;;;2.85;74.69;99435.59;686877;28;19197;-60
2021/01/25 01:05:33;;;;;;;15.63;10.05;;;;;;;2.86;74.69;99434.59;685968;28;42363;-62
2021/01/25 01:05:54;;;;;;;15.27;9.37;;;;;;;2.86;74.64;99431.91;686450;28;23522;-61
2021/01/25 01:06:15;;;;;;;16.38;9.90;;;;;;;2.86;74.62;99428.41;686236;28;46569;-62
2021/01/25 01:06:37;;;;;;;16.75;10.35;;;;;;;2.85;74.53;99434.75;687189;28;17344;-60
2021/01/25 01:06:59;;;;;;;15.60;9.77;;;;;;;2.86;74.59;99431.09;687491;28;906;-62
2021/01/25 01:07:20;;;;;;;16.20;10.00;;;;;;;2.84;74.56;99425.09;686591;28;23520;-62
2021/01/25 01:07:41;;;;;;;15.43;9.90;;;;;;;2.84;74.66;99431.25;687399;28;12348;-62
2021/01/25 01:08:03;;;;;;;15.63;9.70;;;;;;;2.84;74.63;99428.59;686627;28;23445;-62
2021/01/25 01:08:25;;;;;;;15.93;9.55;;;;;;;2.85;74.50;99432.06;686135;28;42091;-61
2021/01/25 01:08:46;;;;;;;14.50;9.60;;;;;;;2.83;74.65;99432.22;686265;28;43510;-61
2021/01/25 01:09:08;;;;;;;13.07;9.50;;;;;;;2.84;74.81;99433.91;687159;28;18066;-62
2021/01/25 01:09:29;;;;;;;13.85;9.55;;;;;;;2.83;74.72;99424.22;685685;28;47297;-62
2021/01/25 01:09:50;;;;;;;14.88;9.18;;;;;;;2.83;74.61;99426.91;681679;29;15589;-61
2021/01/25 01:10:13;;;;;;;16.15;9.80;;;;;;;2.82;74.73;99427.91;682434;28;13608;-61
2021/01/25 01:10:34;;;;;;;15.25;9.85;;;;;;;2.82;74.80;99427.06;680977;28;67505;-61
2021/01/25 01:10:56;;;;;;;14.57;9.50;;;;;;;2.81;74.86;99428.91;682570;28;21679;-62
2021/01/25 01:11:21;;;;;;;14.57;9.35;;;;;;;2.81;74.78;99428.91;681388;28;60844;-60
2021/01/25 01:11:43;;;;;;;13.63;9.25;;;;;;;2.82;74.89;99435.06;684399;28;27656;-61
2021/01/25 01:12:05;;;;;;;14.32;9.32;;;;;;;2.83;74.75;99436.75;686924;28;23505;-61
2021/01/25 01:12:27;;;;;;;13.53;9.20;;;;;;;2.83;74.79;99434.06;686078;28;37902;-61
2021/01/25 01:12:48;;;;;;;13.43;9.27;;;;;;;2.83;74.88;99434.06;685759;28;46387;-61
2021/01/25 01:13:09;;;;;;;12.85;8.32;;;;;;;2.83;74.75;99432.22;687165;28;15213;-63
2021/01/25 01:13:30;;;;;;;14.52;8.75;;;;;;;2.84;74.72;99435.75;683665;28;22383;-61
2021/01/25 01:13:52;;;;;;;14.32;8.70;;;;;;;2.83;74.88;99436.75;684607;28;22409;-61
2021/01/25 01:14:13;;;;;;;15.30;8.75;;;;;;;2.82;74.77;99432.38;683155;28;46344;-59
2021/01/25 01:14:34;;;;;;;13.77;8.50;;;;;;;2.83;74.79;99436.75;683887;28;23508;-61
2021/01/25 01:14:56;;;;;;;13.75;8.77;;;;;;;2.83;74.89;99442.06;683229;28;46209;-62
2021/01/25 01:15:17;;;;;;;13.23;8.73;;;;;;;2.82;74.84;99433.25;684058;28;21607;-62
2021/01/25 01:15:39;;;;;;;14.00;9.25;;;;;;;2.83;74.84;99434.91;686254;28;37469;-60
2021/01/25 01:16:02;;;;;;;13.88;9.35;;;;;;;2.82;74.85;99438.59;687273;28;1192;-61
2021/01/25 01:16:33;;;;;;;13.60;9.00;;;;;;;2.82;74.87;99440.38;685354;28;59025;-61
2021/01/25 01:16:54;;;;;;;13.93;9.20;;;;;;;2.82;74.96;99443.06;686919;28;21442;-61
2021/01/25 01:17:17;;;;;;;13.73;9.15;;;;;;;2.83;74.82;99434.91;686318;28;40877;-62
2021/01/25 01:17:42;;;;;;;14.90;9.45;;;;;;;2.83;74.84;99439.41;685486;28;61336;-62
2021/01/25 01:18:04;;;;;;;15.15;8.90;;;;;;;2.83;74.82;99434.91;686062;28;46582;-61
2021/01/25 01:18:25;;;;;;;15.57;9.82;;;;;;;2.84;74.80;99436.59;686684;28;23539;-61
2021/01/25 01:18:47;;;;;;;14.63;9.50;;;;;;;2.85;74.78;99434.75;686219;28;34007;-61
2021/01/25 01:19:08;;;;;;;14.25;9.30;;;;;;;2.85;74.96;99445.41;686707;28;17856;-61
2021/01/25 01:19:29;;;;;;;14.30;9.15;;;;;;;2.85;74.74;99432.06;686537;28;22418;-61
2021/01/25 01:19:51;;;;;;;14.48;9.20;;;;;;;2.85;74.83;99437.41;687997;28;989;-61
2021/01/25 01:20:13;;;;;;;14.23;9.20;;;;;;;2.85;75.11;99434.75;687409;28;21583;-62
2021/01/25 01:20:34;;;;;;;14.30;9.38;;;;;;;2.83;74.96;99436.75;686495;28;44152;-61
2021/01/25 01:20:55;;;;;;;14.80;9.43;;;;;;;2.84;74.91;99438.41;686724;28;46335;-62
2021/01/25 01:21:17;;;;;;;15.27;9.20;;;;;;;2.84;74.88;99433.91;687451;28;22602;-64
2021/01/25 01:21:38;;;;;;;15.38;9.65;;;;;;;2.85;74.80;99440.06;687726;28;15174;-61
2021/01/25 01:22:00;;;;;;;14.65;9.63;;;;;;;2.85;74.74;99435.59;687630;28;11264;-61
2021/01/25 01:22:21;;;;;;;12.27;8.50;;;;;;;2.85;74.80;99438.25;686214;28;46628;-63
2021/01/25 01:22:42;;;;;;;13.98;9.20;;;;;;;2.85;74.87;99440.94;686384;28;22542;-63
2021/01/25 01:23:03;;;;;;;14.10;9.05;;;;;;;2.86;75.03;99439.91;687524;28;23552;-62
2021/01/25 01:23:24;;;;;;;14.10;8.85;;;;;;;2.87;74.85;99438.09;686555;28;46479;-62
2021/01/25 01:23:46;;;;;;;14.73;9.52;;;;;;;2.86;74.71;99437.25;687583;28;22492;-62
2021/01/25 01:24:08;;;;;;;13.82;9.52;;;;;;;2.86;74.82;99442.56;686667;28;47177;-62
2021/01/25 01:24:29;;;;;;;15.55;9.85;;;;;;;2.87;74.72;99440.78;687038;28;22385;-62
2021/01/25 01:24:50;;;;;;;14.02;9.40;;;;;;;2.87;74.72;99441.59;686301;28;35152;-61
2021/01/25 01:25:15;;;;;;;14.25;8.90;;;;;;;2.85;74.58;99432.94;687090;28;20413;-62
2021/01/25 01:25:36;;;;;;;14.80;9.57;;;;;;;2.88;74.75;99437.09;684255;28;104925;-62
2021/01/25 01:25:58;;;;;;;15.48;9.55;;;;;;;2.87;74.63;99444.25;687608;28;20370;-63
2021/01/25 01:26:19;;;;;;;13.40;9.15;;;;;;;2.88;74.71;99442.41;687381;28;22388;-62
2021/01/25 01:26:41;;;;;;;14.20;9.38;;;;;;;2.87;74.73;99438.94;686908;28;35860;-61
2021/01/25 01:27:03;;;;;;;14.23;9.35;;;;;;;2.88;74.67;99440.63;687236;28;18410;-62
2021/01/25 01:27:24;;;;;;;14.63;9.38;;;;;;;2.87;74.75;99441.59;686394;28;45365;-62
2021/01/25 01:27:45;;;;;;;14.18;8.88;;;;;;;2.89;74.75;99436.09;686860;28;46274;-64
2021/01/25 01:28:06;;;;;;;14.70;9.02;;;;;;;2.88;74.76;99439.75;687480;28;22427;-64
2021/01/25 01:28:28;;;;;;;14.35;9.52;;;;;;;2.87;74.72;99433.59;686455;28;21947;-62
2021/01/25 01:28:50;;;;;;;15.85;9.60;;;;;;;2.87;74.82;99433.59;688261;28;928;-61
2021/01/25 01:29:11;;;;;;;16.30;9.73;;;;;;;2.87;74.76;99432.78;687128;28;21648;-61
2021/01/25 01:29:33;;;;;;;14.90;9.23;;;;;;;2.88;74.77;99437.09;687155;28;22379;-61
2021/01/25 01:30:00;;;;;;;15.88;9.40;;;;;;;2.88;74.73;99437.09;685981;28;60287;-63
2021/01/25 01:30:22;;;;;;;14.57;9.00;;;;;;;2.87;74.58;99438.94;687704;28;23565;-64
2021/01/25 01:30:43;;;;;;;14.93;9.52;;;;;;;2.88;74.84;99439.75;686434;28;46575;-64
2021/01/25 01:31:04;;;;;;;14.10;9.32;;;;;;;2.88;74.61;99439.75;686870;28;40545;-64
2021/01/25 01:31:26;;;;;;;15.57;10.00;;;;;;;2.87;74.71;99438.94;688478;28;899;-63
2021/01/25 01:31:47;;;;;;;13.77;9.43;;;;;;;2.88;74.62;99437.09;687456;28;22483;-64
2021/01/25 01:32:09;;;;;;;13.38;9.10;;;;;;;2.88;74.66;99443.28;686281;28;44540;-63
2021/01/25 01:32:31;;;;;;;13.80;9.13;;;;;;;2.86;74.66;99433.75;687552;28;9429;-63
2021/01/25 01:32:52;;;;;;;14.95;9.73;;;;;;;2.87;74.74;99440.78;682642;28;69442;-60
2021/01/25 01:33:14;;;;;;;15.48;9.45;;;;;;;2.87;74.73;99432.78;684442;28;23484;-59
2021/01/25 01:33:35;;;;;;;14.77;9.48;;;;;;;2.86;74.75;99437.25;684842;28;11891;-61
2021/01/25 01:33:57;;;;;;;14.30;9.77;;;;;;;2.87;74.75;99441.59;683423;28;46430;-61
2021/01/25 01:34:18;;;;;;;15.38;9.38;;;;;;;2.84;74.64;99435.75;684469;28;19369;-63
2021/01/25 01:34:40;;;;;;;14.55;9.27;;;;;;;2.88;74.74;99437.09;684982;28;1840;-62
2021/01/25 01:35:02;;;;;;;14.57;9.27;;;;;;;2.84;74.65;99436.59;687024;28;22442;-61
2021/01/25 01:35:23;;;;;;;14.90;9.80;;;;;;;2.88;74.74;99439.75;686355;28;46425;-62
2021/01/25 01:35:44;;;;;;;15.68;9.38;;;;;;;2.88;74.69;99434.41;687731;28;13005;-62
2021/01/25 01:36:06;;;;;;;13.80;8.90;;;;;;;2.89;74.62;99438.78;687446;28;22405;-62
2021/01/25 01:36:27;;;;;;;13.30;8.93;;;;;;;2.88;74.70;99437.94;686291;28;46121;-62
2021/01/25 01:36:48;;;;;;;15.13;9.52;;;;;;;2.88;74.76;99439.75;687304;28;22399;-62
2021/01/25 01:37:10;;;;;;;14.35;9.55;;;;;;;2.88;74.66;99440.63;687478;28;16305;-62
2021/01/25 01:37:31;;;;;;;14.45;9.55;;;;;;;2.89;74.73;99438.78;683809;28;34065;-62
2021/01/25 01:37:53;;;;;;;15.00;9.43;;;;;;;2.89;74.71;99438.78;684514;28;22378;-62
2021/01/25 01:38:15;;;;;;;14.38;8.90;;;;;;;2.91;74.67;99435.94;680243;28;46414;-62
2021/01/25 01:38:38;;;;;;;14.75;8.82;;;;;;;2.89;74.56;99434.25;682376;29;926;-62
2021/01/25 01:39:00;;;;;;;13.50;8.95;;;;;;;2.91;74.86;99441.28;680818;29;47697;-62
2021/01/25 01:39:21;;;;;;;14.82;8.73;;;;;;;2.91;74.69;99438.63;681311;28;46315;-61
2021/01/25 01:39:43;;;;;;;14.80;9.02;;;;;;;2.92;74.56;99442.97;680501;29;22009;-63
2021/01/25 01:40:05;;;;;;;12.80;8.32;;;;;;;2.90;74.70;99440.44;680838;28;27293;-60
2021/01/25 01:40:26;;;;;;;14.77;9.02;;;;;;;2.89;74.65;99441.44;682260;28;44045;-63
2021/01/25 01:40:48;;;;;;;14.45;9.10;;;;;;;2.90;74.58;99435.13;683503;28;7778;-60
2021/01/25 01:41:09;;;;;;;16.73;9.52;;;;;;;2.91;74.54;99442.09;683349;28;25254;-63
2021/01/25 01:41:34;;;;;;;15.23;9.43;;;;;;;2.89;74.53;99436.94;683087;28;22400;-63
2021/01/25 01:41:55;;;;;;;12.45;8.63;;;;;;;2.92;74.61;99438.44;681334;28;114829;-60
2021/01/25 01:42:17;;;;;;;15.00;9.20;;;;;;;2.92;74.53;99437.63;688314;28;1687;-64
2021/01/25 01:42:40;;;;;;;14.80;8.98;;;;;;;2.90;74.56;99435.13;686399;28;45016;-64
2021/01/25 01:43:01;;;;;;;13.52;8.38;;;;;;;2.91;74.54;99436.78;686230;28;52126;-64